Latest Weather Observations for Mackay

IDQ60801

Issued at 9:32 am EST Sunday 30 August 2015 (issued every 30 minutes, with the page automatically refreshed every 10 minutes)

About weather observations | Map of weather stations | Latest weather observations for QLD | Other Formats
Station Details ID: 033119 Name: MACKAY M.O Lat: -21.12 Lon: 149.22 Height: 30.26 m
Data from the previous 72 hours. | See also: Recent months at Mackay
Date/Time
EST
Temp
°C
App
Temp
°C
Dew
Point
Rel
Hum
%
Delta-T
°C
Wind Press
QNH
hPa
Press
MSL
hPa
Rain
since 9 am
mm
Dir
 
Spd
km/h
Gust
km/h
Spd
kts
Gust
kts
30/09:00am 23.1 24.4 19.2 79 2.5 SE 11 17 6 9 1018.3 1018.2 0.0
30/08:30am 21.9 23.3 19.5 86 1.5 S 11 15 6 8 1018.2 1018.1 0.0
30/08:00am 21.1 22.8 19.4 90 1.1 SSW 9 13 5 7 1017.9 1017.8 0.0
30/07:30am 19.7 20.9 19.1 96 0.4 SSW 11 13 6 7 1017.7 1017.6 0.0
30/07:00am 19.1 20.6 18.8 98 0.2 SW 9 11 5 6 1017.5 1017.4 0.0
30/06:30am 18.8 19.8 18.6 99 0.1 SW 11 13 6 7 1017.1 1017.0 0.0
30/06:00am 18.8 20.2 18.6 99 0.1 SW 9 11 5 6 1016.7 1016.6 0.0
30/05:30am 18.7 19.7 18.7 100 0.0 WSW 11 13 6 7 1016.5 1016.4 0.0
30/05:26am 18.7 19.6 18.5 99 0.1 SW 11 13 6 7 1016.5 1016.4 0.0
30/05:00am 18.6 19.9 18.4 99 0.1 WSW 9 13 5 7 1016.2 1016.1 0.0
30/04:48am 18.6 19.9 18.4 99 0.1 SW 9 13 5 7 1016.1 1016.0 0.0
30/04:30am 18.8 20.5 18.6 99 0.1 SW 7 11 4 6 1015.8 1015.7 0.0
30/04:00am 18.8 20.1 18.5 98 0.2 WSW 9 13 5 7 1016.1 1016.0 0.0
30/03:30am 19.2 21.1 18.9 98 0.2 SW 7 7 4 4 1016.0 1015.9 0.0
30/03:00am 19.6 21.6 19.1 97 0.3 SW 7 7 4 4 1016.2 1016.1 0.0
30/02:30am 19.5 21.1 19.2 98 0.2 SW 9 9 5 5 1016.6 1016.5 0.0
30/02:00am 19.5 21.6 19.3 99 0.1 SSW 7 7 4 4 1016.5 1016.4 0.0
30/01:30am 19.4 21.0 19.1 98 0.2 SW 9 13 5 7 1017.3 1017.2 0.0
30/01:00am 19.3 20.8 19.0 98 0.2 SSW 9 13 5 7 1017.5 1017.4 0.0
30/12:30am 19.4 20.5 18.9 97 0.3 SW 11 13 6 7 1018.0 1017.9 0.0
30/12:00am 19.4 20.9 18.8 96 0.4 SW 9 11 5 6 1017.9 1017.8 0.0
 
Date/Time
EST
Temp
°C
App
Temp
°C
Dew
Point
Rel
Hum
%
Delta-T
°C
Wind Press
QNH
hPa
Press
MSL
hPa
Rain
since 9 am
mm
Dir
 
Spd
km/h
Gust
km/h
Spd
kts
Gust
kts
29/11:30pm 19.6 21.1 19.0 96 0.4 SW 9 11 5 6 1018.1 1018.0 0.0
29/11:00pm 20.3 22.4 18.9 92 0.9 NNW 6 7 3 4 1017.8 1017.7 0.0
29/10:30pm 20.3 22.4 18.9 92 0.9 NNW 6 7 3 4 1017.8 1017.7 0.0
29/10:00pm 20.5 22.6 18.9 90 1.0 N 6 9 3 5 1017.7 1017.6 0.0
29/09:30pm 20.8 22.4 19.2 90 1.0 NNE 9 15 5 8 1017.6 1017.5 0.0
29/09:00pm 20.7 22.3 19.1 90 1.0 NNE 9 15 5 8 1017.9 1017.8 0.0
29/08:30pm 20.8 22.8 19.1 90 1.1 NNE 7 13 4 7 1018.2 1018.1 0.0
29/08:00pm 20.8 22.4 19.1 90 1.1 NE 9 13 5 7 1017.8 1017.7 0.0
29/07:30pm 20.8 22.8 19.1 90 1.1 NE 7 15 4 8 1017.4 1017.3 0.0
29/07:00pm 21.3 23.4 20.1 93 0.8 ENE 9 17 5 9 1016.8 1016.7 0.0
29/06:30pm 21.3 23.4 20.1 93 0.8 ENE 9 17 5 9 1016.9 1016.8 0.0
29/06:00pm 21.4 23.4 20.0 92 0.9 NE 9 15 5 8 1016.9 1016.8 0.0
29/05:30pm 22.0 23.7 20.1 89 1.2 NE 11 17 6 9 1016.9 1016.8 0.0
29/05:00pm 22.6 24.3 20.1 86 1.6 NE 11 15 6 8 1017.0 1016.9 0.0
29/04:30pm 23.3 24.5 20.0 82 2.1 ENE 13 20 7 11 1016.9 1016.8 0.0
29/04:00pm 23.2 23.6 19.8 81 2.2 E 17 20 9 11 1016.8 1016.7 0.0
29/03:30pm 24.0 24.8 19.8 77 2.7 E 15 20 8 11 1017.1 1017.0 0.0
29/03:00pm 23.8 24.1 19.6 77 2.7 E 17 22 9 12 1017.1 1017.0 0.0
29/02:30pm 24.4 25.1 19.6 74 3.1 ENE 15 20 8 11 1017.4 1017.3 0.0
29/02:00pm 24.4 25.1 19.7 75 3.0 E 15 20 8 11 1017.7 1017.6 0.0
29/01:30pm 24.7 25.8 19.7 73 3.2 E 13 20 7 11 1018.4 1018.3 0.0
29/01:00pm 23.2 24.6 19.6 80 2.3 ESE 11 19 6 10 1018.8 1018.7 0.0
29/12:30pm 23.4 24.5 19.7 80 2.4 ESE 13 17 7 9 1019.2 1019.1 0.0
29/12:00pm 23.6 24.7 19.7 79 2.5 ESE 13 20 7 11 1019.8 1019.7 0.0
29/11:30am 23.9 25.2 19.4 76 2.9 ESE 11 15 6 8 1020.2 1020.1 0.0
29/11:00am 23.9 25.9 19.9 78 2.6 SE 9 17 5 9 1020.5 1020.4 0.0
29/10:30am 22.5 24.4 19.8 85 1.7 SSE 9 13 5 7 1021.1 1021.0 0.0
29/10:00am 22.4 23.7 19.4 83 1.9 SSE 11 17 6 9 1021.3 1021.2 0.0
29/09:30am 22.6 24.0 19.5 82 2.0 SSE 11 15 6 8 1021.2 1021.1 0.0
29/09:00am 22.6 24.4 19.5 82 2.0 SSE 9 17 5 9 1020.9 1020.8 0.0
29/08:30am 20.9 22.0 18.8 88 1.3 SSW 11 13 6 7 1020.7 1020.6 0.0
29/08:00am 19.3 20.9 18.3 94 0.6 SSW 7 9 4 5 1020.6 1020.5 0.0
29/07:30am 18.3 19.2 17.6 96 0.4 SW 9 11 5 6 1020.3 1020.2 0.0
29/07:00am 17.2 17.0 16.7 97 0.3 WSW 13 15 7 8 1020.0 1019.9 0.0
29/06:30am 16.7 16.8 16.5 99 0.1 SW 11 13 6 7 1019.6 1019.5 0.0
29/06:00am 16.7 16.4 16.4 98 0.2 SW 13 15 7 8 1019.3 1019.2 0.0
29/05:43am 16.6 16.2 16.3 98 0.2 SW 13 17 7 9 1019.1 1019.0 0.0
29/05:30am 16.3 16.2 16.1 99 0.1 SW 11 15 6 8 1019.0 1018.9 0.0
29/05:18am 16.4 16.0 16.2 99 0.1 SW 13 17 7 9 1018.9 1018.8 0.0
29/05:00am 16.4 16.1 16.4 100 0.0 SW 13 17 7 9 1018.6 1018.5 0.0
29/04:32am 16.6 16.3 16.4 99 0.1 SW 13 17 7 9 1018.2 1018.1 0.0
29/04:30am 16.7 16.4 16.4 98 0.2 SW 13 17 7 9 1018.2 1018.1 0.0
29/04:00am 17.0 17.6 16.7 98 0.2 SW 9 13 5 7 1018.1 1018.0 0.0
29/03:30am 17.5 17.8 17.0 97 0.3 SW 11 13 6 7 1018.3 1018.2 0.0
29/03:00am 17.6 17.9 17.1 97 0.3 SW 11 13 6 7 1018.6 1018.5 0.0
29/02:30am 17.7 18.0 17.0 96 0.4 SW 11 13 6 7 1018.9 1018.8 0.0
29/02:00am 17.6 17.9 17.1 97 0.3 SW 11 13 6 7 1019.3 1019.2 0.0
29/01:30am 17.8 18.2 17.3 97 0.3 SW 11 11 6 6 1019.7 1019.6 0.0
29/01:00am 18.0 18.5 17.5 97 0.3 SW 11 13 6 7 1020.1 1020.0 0.0
29/12:30am 18.2 18.7 17.5 96 0.4 SW 11 15 6 8 1020.3 1020.2 0.0
29/12:24am 18.2 18.3 17.5 96 0.4 SW 13 15 7 8 1020.3 1020.2 0.0
29/12:00am 18.3 19.2 17.5 95 0.5 SW 9 11 5 6 1020.2 1020.1 0.0
 
Date/Time
EST
Temp
°C
App
Temp
°C
Dew
Point
Rel
Hum
%
Delta-T
°C
Wind Press
QNH
hPa
Press
MSL
hPa
Rain
since 9 am
mm
Dir
 
Spd
km/h
Gust
km/h
Spd
kts
Gust
kts
28/11:47pm 18.4 19.2 17.4 94 0.6 SW 9 13 5 7 1020.1 1020.0 0.0
28/11:30pm 18.7 19.6 17.6 93 0.7 WSW 9 11 5 6 1020.0 1019.9 0.0
28/11:00pm 19.1 20.6 18.0 93 0.7 SW 7 9 4 5 1020.0 1019.9 0.0
28/10:30pm 19.2 20.8 18.2 94 0.6 SW 7 9 4 5 1020.1 1020.0 0.0
28/10:00pm 20.2 22.6 18.8 92 0.9 SE 4 9 2 5 1020.1 1020.0 0.0
28/09:30pm 20.7 22.2 18.9 89 1.1 ENE 9 11 5 6 1020.3 1020.2 0.0
28/09:00pm 20.7 22.7 18.8 89 1.2 NE 6 9 3 5 1020.3 1020.2 0.0
28/08:30pm 20.8 22.8 18.7 88 1.3 ENE 6 9 3 5 1020.0 1019.9 0.0
28/08:00pm 20.9 22.4 18.8 88 1.3 ENE 9 15 5 8 1019.8 1019.7 0.0
28/07:30pm 20.9 22.4 18.8 88 1.3 ENE 9 11 5 6 1019.4 1019.3 0.0
28/07:00pm 21.0 22.5 18.8 87 1.4 ENE 9 15 5 8 1019.0 1018.9 0.0
28/06:30pm 21.2 22.1 18.3 83 1.8 ENE 11 17 6 9 1018.8 1018.7 0.0
28/06:00pm 21.4 21.5 18.4 83 1.9 ENE 15 19 8 10 1018.4 1018.3 0.0
28/05:30pm 21.8 21.9 18.4 81 2.1 ENE 15 24 8 13 1018.1 1018.0 0.0
28/05:00pm 22.1 21.5 18.4 79 2.3 ENE 19 28 10 15 1017.9 1017.8 0.0
28/04:30pm 22.6 22.4 18.5 77 2.6 ENE 17 22 9 12 1017.8 1017.7 0.0
28/04:00pm 22.6 22.8 18.5 77 2.6 E 15 20 8 11 1017.7 1017.6 0.0
28/03:30pm 23.0 22.7 18.2 74 3.0 E 17 24 9 13 1017.4 1017.3 0.0
28/03:00pm 23.1 22.5 18.8 77 2.7 E 20 30 11 16 1016.9 1016.8 0.0
28/02:30pm 23.3 22.6 18.7 75 2.9 E 20 32 11 17 1017.3 1017.2 0.0
28/02:00pm 23.4 23.0 19.3 78 2.6 E 20 30 11 16 1017.7 1017.6 0.0
28/01:30pm 22.7 23.2 19.2 80 2.2 E 15 26 8 14 1018.4 1018.3 0.0
28/01:00pm 23.5 24.5 19.4 78 2.6 E 13 22 7 12 1019.0 1018.9 0.0
28/12:30pm 23.2 23.9 18.9 77 2.7 E 13 22 7 12 1019.3 1019.2 0.0
28/12:00pm 23.8 24.8 19.4 76 2.8 ESE 13 22 7 12 1019.7 1019.6 0.0
28/11:30am 23.6 24.2 19.5 78 2.6 ESE 15 24 8 13 1020.1 1020.0 0.0
28/11:00am 23.7 24.7 19.5 77 2.7 SE 13 20 7 11 1020.8 1020.7 0.0
28/10:30am 23.4 24.4 19.5 79 2.5 SE 13 19 7 10 1021.0 1020.9 0.0
28/10:00am 23.0 24.4 19.6 81 2.2 SSE 11 19 6 10 1021.3 1021.2 0.0
28/09:30am 22.3 23.5 19.1 82 2.0 SSE 11 15 6 8 1021.2 1021.1 0.0
28/09:00am 22.8 24.2 19.5 81 2.1 S 11 19 6 10 1021.2 1021.1 0.2
28/08:30am 21.0 22.9 18.9 88 1.3 SW 7 11 4 6 1021.0 1020.9 0.2
28/08:00am 19.1 20.2 18.1 94 0.6 SW 9 13 5 7 1020.8 1020.7 0.2
28/07:30am 18.1 18.3 17.6 97 0.3 SW 13 19 7 10 1020.6 1020.5 0.2
28/07:00am 17.5 17.5 17.3 99 0.1 SW 13 17 7 9 1020.2 1020.1 0.2
28/06:30am 17.3 18.0 17.1 99 0.1 SW 9 15 5 8 1019.8 1019.7 0.2
28/06:00am 17.6 18.4 17.3 98 0.2 SW 9 11 5 6 1019.5 1019.4 0.2
28/05:31am 17.6 18.1 17.4 99 0.1 SW 11 15 6 8 1019.6 1019.5 0.2
28/05:30am 17.6 18.1 17.4 99 0.1 SW 11 15 6 8 1019.5 1019.4 0.2
28/05:02am 17.5 18.3 17.3 99 0.1 SW 9 13 5 7 1019.0 1018.9 0.2
28/05:00am 17.6 18.4 17.4 99 0.1 SW 9 13 5 7 1019.0 1018.9 0.2
28/04:30am 17.7 18.6 17.5 99 0.1 SW 9 13 5 7 1018.7 1018.6 0.2
28/04:14am 17.8 18.7 17.6 99 0.1 SW 9 13 5 7 1018.8 1018.7 0.2
28/04:00am 17.8 18.7 17.6 99 0.1 SW 9 13 5 7 1018.8 1018.7 0.2
28/03:30am 17.8 18.0 17.6 99 0.1 SW 13 17 7 9 1018.7 1018.6 0.2
28/03:00am 17.8 18.4 17.6 99 0.1 SW 11 15 6 8 1018.7 1018.6 0.2
28/02:30am 17.7 17.9 17.7 100 0.0 SW 13 15 7 8 1019.0 1018.9 0.2
28/02:00am 17.7 18.2 17.5 99 0.1 SW 11 15 6 8 1019.2 1019.1 0.2
28/01:30am 17.8 18.3 17.5 98 0.2 SW 11 13 6 7 1019.3 1019.2 0.2
28/01:00am 17.9 18.8 17.6 98 0.2 SW 9 11 5 6 1019.6 1019.5 0.2
28/12:30am 18.1 19.0 17.6 97 0.3 WSW 9 9 5 5 1019.9 1019.8 0.2
28/12:09am 18.4 19.5 17.9 97 0.3 SW 9 11 5 6 1020.1 1020.0 0.2
28/12:00am 18.6 19.4 18.1 97 0.3 SW 11 15 6 8 1020.2 1020.1 0.2
 
Date/Time
EST
Temp
°C
App
Temp
°C
Dew
Point
Rel
Hum
%
Delta-T
°C
Wind Press
QNH
hPa
Press
MSL
hPa
Rain
since 9 am
mm
Dir
 
Spd
km/h
Gust
km/h
Spd
kts
Gust
kts
27/11:30pm 18.9 20.6 18.4 97 0.3 SW 7 11 4 6 1020.3 1020.2 0.2
27/11:00pm 19.1 20.4 18.5 96 0.4 SW 9 11 5 6 1020.5 1020.4 0.2
27/10:58pm 19.1 20.4 18.5 96 0.4 SW 9 13 5 7 1020.6 1020.5 0.2
27/10:30pm 21.0 23.2 19.1 89 1.2 E 6 9 3 5 1020.5 1020.4 0.2
27/10:00pm 21.1 23.0 19.0 88 1.3 E 7 9 4 5 1020.6 1020.5 0.2
27/09:30pm 20.9 22.2 19.3 90 1.0 ENE 11 17 6 9 1020.5 1020.4 0.2
27/09:00pm 20.7 22.4 19.3 92 0.9 ENE 9 15 5 8 1020.6 1020.5 0.2
27/08:30pm 21.1 22.3 19.0 88 1.3 E 11 17 6 9 1020.8 1020.7 0.2
27/08:00pm 21.2 22.0 19.1 88 1.3 E 13 20 7 11 1020.5 1020.4 0.2
27/07:30pm 21.1 22.2 18.9 87 1.4 E 11 15 6 8 1020.3 1020.2 0.2
27/07:00pm 21.1 22.6 19.0 88 1.3 ESE 9 13 5 7 1020.1 1020.0 0.2
27/06:30pm 21.1 23.0 19.0 88 1.3 E 7 13 4 7 1019.8 1019.7 0.2
27/06:00pm 21.3 21.9 18.7 85 1.6 E 13 17 7 9 1019.3 1019.2 0.2
27/05:30pm 21.6 22.6 18.7 83 1.8 E 11 17 6 9 1018.9 1018.8 0.2
27/05:00pm 21.9 23.3 18.7 82 2.0 E 9 15 5 8 1018.7 1018.6 0.2
27/04:30pm 22.5 24.0 18.9 80 2.3 ESE 9 15 5 8 1018.6 1018.5 0.2
27/04:00pm 22.5 23.5 18.7 79 2.4 ESE 11 19 6 10 1018.4 1018.3 0.2
27/03:30pm 22.9 23.8 18.4 76 2.8 E 11 19 6 10 1018.5 1018.4 0.2
27/03:00pm 23.1 24.3 19.0 78 2.6 ESE 11 19 6 10 1018.5 1018.4 0.2
27/02:30pm 23.1 24.3 19.0 78 2.6 ESE 11 19 6 10 1018.6 1018.5 0.2
27/02:00pm 23.3 23.7 19.0 77 2.7 ESE 15 20 8 11 1018.6 1018.5 0.2
27/01:30pm 24.3 25.1 19.1 73 3.3 ESE 13 17 7 9 1019.0 1018.9 0.2
27/01:00pm 24.0 25.4 18.6 72 3.4 ESE 9 17 5 9 1019.5 1019.4 0.2
27/12:30pm 23.7 24.3 18.6 73 3.2 SE 13 19 7 10 1020.0 1019.9 0.2
27/12:00pm 23.7 24.3 18.6 73 3.2 SE 13 19 7 10 1020.3 1020.2 0.2
27/11:30am 23.7 24.4 18.8 74 3.1 SE 13 17 7 9 1020.6 1020.5 0.2
27/11:00am 23.1 24.3 19.0 78 2.6 SE 11 17 6 9 1020.9 1020.8 0.2
27/10:30am 23.4 24.7 19.3 78 2.6 SE 11 15 6 8 1021.4 1021.3 0.2
27/10:00am 23.4 25.2 19.5 79 2.5 SSE 9 17 5 9 1021.5 1021.4 0.2

Other Formats:

Comma delimited format used in spreadsheet applications
http://www.bom.gov.au/fwo/IDQ60801/IDQ60801.94367.axf

JavaScript Object Notation format (JSON) in row-major order
http://www.bom.gov.au/fwo/IDQ60801/IDQ60801.94367.json